createdAt,value
2022-10-16T06:17:02.998Z,67.61
2022-10-16T06:19:30.747Z,67.76
2022-10-16T06:21:59.961Z,67.56
2022-10-16T06:24:28.082Z,67.46
2022-10-16T06:26:56.457Z,67.45
2022-10-16T06:29:24.358Z,67.66
2022-10-16T06:31:52.639Z,67.67
2022-10-16T06:34:21.913Z,67.76
2022-10-16T06:36:50.460Z,67.58
2022-10-16T06:39:18.391Z,67.96
2022-10-16T06:41:46.724Z,67.67
2022-10-16T06:44:14.622Z,67.88
2022-10-16T06:46:42.429Z,67.46
2022-10-16T06:49:10.741Z,67.95
2022-10-16T06:51:43.318Z,67.86
2022-10-16T06:54:11.845Z,68.26
2022-10-16T06:56:39.699Z,67.85
2022-10-16T06:59:07.730Z,67.96
2022-10-16T07:01:35.660Z,68.19
2022-10-16T07:04:04.583Z,68.15
2022-10-16T07:06:35.241Z,67.89
2022-10-16T07:09:07.409Z,67.43
2022-10-16T07:11:36.280Z,67.93
2022-10-16T07:14:04.559Z,68.13
2022-10-16T07:16:34.574Z,67.82
2022-10-16T07:19:04.262Z,68.01
2022-10-16T07:21:37.178Z,67.86
2022-10-16T07:24:08.929Z,67.67
2022-10-16T07:26:40.534Z,67.40
2022-10-16T07:29:14.577Z,67.49
2022-10-16T07:31:43.223Z,67.32
2022-10-16T07:34:12.427Z,67.19
2022-10-16T07:36:40.306Z,66.88
2022-10-16T07:39:10.180Z,66.92
2022-10-16T07:41:38.716Z,66.93
2022-10-16T07:44:07.936Z,66.79
2022-10-16T07:46:36.925Z,66.94
2022-10-16T07:49:05.430Z,67.15
2022-10-16T07:51:33.377Z,66.61
2022-10-16T07:54:01.691Z,66.63
2022-10-16T07:56:33.370Z,66.20
2022-10-16T07:59:01.169Z,66.22
2022-10-16T08:01:32.051Z,66.03
2022-10-16T08:03:59.870Z,65.62
2022-10-16T08:06:28.235Z,65.57
2022-10-16T08:08:57.761Z,65.01
2022-10-16T08:11:25.918Z,64.71
2022-10-16T08:13:55.259Z,64.82
2022-10-16T08:16:24.133Z,64.12
2022-10-16T08:18:53.631Z,63.76
2022-10-16T08:21:24.136Z,64.00
2022-10-16T08:23:57.075Z,63.73
2022-10-16T08:26:27.215Z,62.76
2022-10-16T08:28:57.214Z,62.60
2022-10-16T08:31:27.472Z,62.30
2022-10-16T08:33:55.529Z,62.50
2022-10-16T08:36:23.968Z,61.66
2022-10-16T08:38:55.306Z,61.93
2022-10-16T08:41:36.589Z,61.90
2022-10-16T08:44:30.784Z,61.06
2022-10-16T08:47:05.750Z,61.33
2022-10-16T08:49:34.129Z,61.05
2022-10-16T08:52:02.566Z,61.18
2022-10-16T08:54:35.814Z,60.57
2022-10-16T08:57:12.653Z,60.96
2022-10-16T08:59:42.199Z,60.09
2022-10-16T09:02:28.257Z,60.61
2022-10-16T09:05:05.397Z,59.66
2022-10-16T09:07:41.842Z,60.25
2022-10-16T09:10:35.326Z,60.51
2022-10-16T09:13:18.894Z,60.08
2022-10-16T09:15:57.025Z,59.52
2022-10-16T09:18:32.798Z,59.16
2022-10-16T09:21:11.761Z,59.03
2022-10-16T09:23:40.397Z,58.98
2022-10-16T09:26:13.596Z,58.50
2022-10-16T09:28:42.311Z,58.15
2022-10-16T09:31:18.126Z,58.42
2022-10-16T09:33:47.761Z,58.35
2022-10-16T09:36:16.334Z,58.52
2022-10-16T09:38:44.326Z,58.67
2022-10-16T09:41:20.261Z,57.23
2022-10-16T09:43:56.510Z,57.62
2022-10-16T09:46:29.705Z,57.54
2022-10-16T09:48:59.963Z,58.44
2022-10-16T09:51:30.720Z,57.94
2022-10-16T09:54:01.109Z,57.46
2022-10-16T09:56:31.114Z,57.57
2022-10-16T09:59:01.723Z,56.63
2022-10-16T10:01:39.542Z,56.56
2022-10-16T10:04:08.216Z,55.67
2022-10-16T10:06:39.269Z,56.06
2022-10-16T10:09:18.107Z,55.47
2022-10-16T10:11:53.112Z,55.36
2022-10-16T10:14:27.419Z,54.72
2022-10-16T10:17:11.645Z,54.87
2022-10-16T10:19:41.494Z,54.87
2022-10-16T10:22:19.401Z,54.29
2022-10-16T10:24:56.849Z,54.22
2022-10-16T10:27:30.911Z,54.54
2022-10-16T10:30:07.287Z,55.24
2022-10-16T10:32:43.072Z,55.29
2022-10-16T10:35:19.279Z,55.33
2022-10-16T10:38:01.271Z,56.19
2022-10-16T10:40:42.012Z,56.41
2022-10-16T10:43:21.492Z,55.14
2022-10-16T10:45:54.836Z,55.67
2022-10-16T10:48:50.310Z,55.02
2022-10-16T10:51:23.695Z,55.66
2022-10-16T10:53:58.530Z,53.92
2022-10-16T10:56:44.331Z,54.06
2022-10-16T10:59:34.655Z,54.39
2022-10-16T11:02:11.897Z,53.94
2022-10-16T11:04:59.950Z,54.06
2022-10-16T11:07:33.557Z,53.40
2022-10-16T11:10:05.559Z,53.89
2022-10-16T11:12:41.447Z,53.57
2022-10-16T11:15:16.502Z,53.06
2022-10-16T11:17:50.407Z,53.82
2022-10-16T11:20:24.880Z,53.92
2022-10-16T11:22:57.421Z,53.51
2022-10-16T11:25:29.055Z,52.97
2022-10-16T11:28:03.618Z,53.28
2022-10-16T11:30:33.450Z,53.29
2022-10-16T11:33:20.543Z,53.29
2022-10-16T11:35:57.276Z,53.15
2022-10-16T11:38:32.234Z,52.94
2022-10-16T11:41:06.151Z,52.57
2022-10-16T11:43:39.727Z,52.47
2022-10-16T11:46:14.333Z,51.76
2022-10-16T11:48:47.830Z,52.53
2022-10-16T11:51:27.348Z,51.77
2022-10-16T11:54:01.837Z,51.55
2022-10-16T11:56:33.337Z,51.21
2022-10-16T11:59:05.826Z,51.66
2022-10-16T12:01:40.680Z,51.86
2022-10-16T12:04:21.599Z,52.07
2022-10-16T12:06:56.624Z,52.14
2022-10-16T12:09:28.274Z,52.35
2022-10-16T12:12:06.407Z,52.72
2022-10-16T12:15:03.904Z,52.60
2022-10-16T12:17:37.279Z,52.85
2022-10-16T12:20:23.235Z,52.96
2022-10-16T12:22:56.483Z,52.77
2022-10-16T12:25:29.295Z,52.18
2022-10-16T12:28:00.032Z,51.85
2022-10-16T12:30:33.639Z,52.75
2022-10-16T12:33:05.878Z,52.01
2022-10-16T12:35:36.975Z,52.60
2022-10-16T12:38:17.619Z,52.31
2022-10-16T12:40:49.045Z,52.12
2022-10-16T12:43:43.284Z,52.87
2022-10-16T12:46:40.648Z,52.74
2022-10-16T12:49:26.711Z,53.00
2022-10-16T12:51:55.182Z,52.53
2022-10-16T12:54:30.707Z,52.46
2022-10-16T12:57:34.371Z,52.83
2022-10-16T13:00:15.873Z,52.75
2022-10-16T13:03:33.180Z,53.05
2022-10-16T13:06:14.486Z,52.74
2022-10-16T13:08:57.910Z,52.88
2022-10-16T13:11:37.458Z,53.22
2022-10-16T13:14:23.855Z,53.78
2022-10-16T13:16:59.859Z,53.05
2022-10-16T13:19:37.214Z,53.10
2022-10-16T13:22:10.683Z,52.86
2022-10-16T13:24:57.422Z,52.66
2022-10-16T13:27:37.382Z,52.88
2022-10-16T13:30:17.754Z,53.18
2022-10-16T13:32:48.885Z,53.09
2022-10-16T13:35:24.502Z,53.43
2022-10-16T13:37:52.598Z,53.22
2022-10-16T13:40:22.719Z,53.10
2022-10-16T13:42:53.967Z,52.86
2022-10-16T13:45:23.427Z,52.92
2022-10-16T13:47:51.851Z,53.03
2022-10-16T13:50:20.890Z,52.74
2022-10-16T13:52:48.691Z,52.52
2022-10-16T13:55:18.584Z,52.62
2022-10-16T13:57:47.659Z,52.54
2022-10-16T14:00:26.169Z,52.56
2022-10-16T14:02:57.854Z,52.63
2022-10-16T14:05:25.974Z,52.51
2022-10-16T14:07:54.928Z,52.79
2022-10-16T14:10:27.815Z,52.74
2022-10-16T14:13:04.486Z,52.70
2022-10-16T14:15:35.665Z,52.81
2022-10-16T14:18:05.553Z,53.26
2022-10-16T14:20:36.647Z,53.63
2022-10-16T14:23:06.351Z,53.96
2022-10-16T14:25:35.346Z,53.35
2022-10-16T14:28:06.212Z,53.70
2022-10-16T14:30:37.763Z,53.44
2022-10-16T14:33:07.329Z,53.89
2022-10-16T14:35:36.889Z,53.70
2022-10-16T14:38:07.069Z,54.01
2022-10-16T14:40:38.495Z,54.79
2022-10-16T14:43:07.298Z,54.85
2022-10-16T14:45:37.799Z,54.74
2022-10-16T14:48:19.993Z,54.84
2022-10-16T14:50:47.950Z,55.26
2022-10-16T14:53:17.183Z,54.71
2022-10-16T14:55:45.587Z,54.89
2022-10-16T14:58:19.412Z,54.82
2022-10-16T15:00:48.838Z,54.71
2022-10-16T15:03:17.140Z,54.12
2022-10-16T15:05:44.951Z,54.26
2022-10-16T15:08:13.726Z,54.26
2022-10-16T15:10:44.940Z,54.49
2022-10-16T15:13:15.475Z,54.63
2022-10-16T15:15:45.644Z,54.81
2022-10-16T15:18:21.166Z,55.51
2022-10-16T15:20:51.352Z,55.56
2022-10-16T15:23:21.794Z,56.55
2022-10-16T15:25:51.134Z,57.30
2022-10-16T15:28:20.602Z,57.01
2022-10-16T15:30:49.073Z,56.75
2022-10-16T15:33:19.899Z,57.39
2022-10-16T15:35:49.909Z,57.23
2022-10-16T15:38:19.410Z,56.69
2022-10-16T15:40:48.467Z,56.45
2022-10-16T15:43:17.076Z,56.07
2022-10-16T15:45:45.036Z,56.30
2022-10-16T15:48:14.641Z,56.83
2022-10-16T15:53:12.922Z,56.90
2022-10-16T15:55:41.227Z,57.04
2022-10-16T15:58:09.124Z,57.21
2022-10-16T16:00:37.627Z,56.89
2022-10-16T16:03:05.465Z,57.44
2022-10-16T16:05:34.710Z,57.92
2022-10-16T16:08:03.986Z,58.14
2022-10-16T16:10:31.955Z,58.63
2022-10-16T16:13:00.588Z,59.08
2022-10-16T16:15:28.880Z,59.11
2022-10-16T16:17:59.707Z,59.16
2022-10-16T16:20:27.980Z,59.21
2022-10-16T16:22:55.874Z,59.31
2022-10-16T16:25:25.567Z,59.32
2022-10-16T16:27:53.357Z,59.32
2022-10-16T16:30:26.003Z,59.39
2022-10-16T16:32:55.779Z,59.34
2022-10-16T16:35:24.280Z,59.96
2022-10-16T16:37:52.174Z,59.80
2022-10-16T16:40:19.971Z,60.31
2022-10-16T16:42:52.264Z,60.37
2022-10-16T16:45:20.364Z,60.14
2022-10-16T16:47:48.928Z,60.14
2022-10-16T16:50:17.209Z,60.27
2022-10-16T16:52:45.307Z,60.36
2022-10-16T16:55:13.921Z,60.26
2022-10-16T16:57:46.555Z,60.05
2022-10-16T17:00:19.749Z,60.61
2022-10-16T17:02:50.687Z,60.54
2022-10-16T17:05:36.820Z,60.75
2022-10-16T17:08:09.091Z,60.74
2022-10-16T17:10:48.875Z,61.18
2022-10-16T17:13:19.083Z,62.22
2022-10-16T17:15:50.796Z,62.22
2022-10-16T17:18:20.058Z,62.28
2022-10-16T17:20:56.047Z,62.62
2022-10-16T17:23:24.575Z,62.50
2022-10-16T17:25:52.822Z,62.78
2022-10-16T17:28:21.331Z,62.94
2022-10-16T17:30:58.003Z,62.68
2022-10-16T17:33:26.634Z,62.54
2022-10-16T17:35:54.791Z,62.55
2022-10-16T17:38:23.349Z,62.99
2022-10-16T17:40:51.513Z,62.92
2022-10-16T17:43:19.906Z,63.28
2022-10-16T17:45:48.163Z,63.37
2022-10-16T17:48:30.994Z,63.52
2022-10-16T17:50:59.912Z,63.48
2022-10-16T17:53:28.542Z,63.23
2022-10-16T17:55:59.816Z,63.28
2022-10-16T18:01:22.104Z,63.35
2022-10-16T18:04:05.374Z,63.58
2022-10-16T18:06:37.284Z,63.64
2022-10-16T18:09:09.043Z,63.86
2022-10-16T18:11:40.134Z,63.64
2022-10-16T18:14:08.806Z,63.67
2022-10-16T18:16:39.568Z,63.91
2022-10-16T18:19:09.695Z,63.83
2022-10-16T18:21:37.820Z,63.85
2022-10-16T18:24:06.184Z,63.76
2022-10-16T18:26:34.203Z,63.75
2022-10-16T18:29:03.141Z,64.08
2022-10-16T18:31:33.324Z,63.89
2022-10-16T18:34:02.641Z,63.88
2022-10-16T18:36:34.446Z,63.85
2022-10-16T18:39:09.544Z,63.78
2022-10-16T18:41:38.462Z,63.87
2022-10-16T18:44:07.007Z,63.94
2022-10-16T18:46:34.966Z,63.94
2022-10-16T18:49:05.860Z,64.17
2022-10-16T18:51:53.431Z,64.21
2022-10-16T18:54:21.397Z,64.18
2022-10-16T18:56:50.121Z,64.30
2022-10-16T18:59:18.218Z,64.50
2022-10-16T19:01:47.859Z,64.43
2022-10-16T19:04:18.694Z,64.37
2022-10-16T19:06:50.468Z,64.23
2022-10-16T19:09:20.823Z,64.87
2022-10-16T19:11:49.468Z,64.53
2022-10-16T19:14:18.770Z,64.39
2022-10-16T19:16:47.237Z,64.59
2022-10-16T19:19:18.400Z,64.78
2022-10-16T19:21:57.382Z,64.51
2022-10-16T19:24:25.498Z,64.90
2022-10-16T19:26:54.063Z,64.78
2022-10-16T19:29:22.464Z,64.72
2022-10-16T19:31:50.792Z,64.77
2022-10-16T19:34:18.806Z,64.59
2022-10-16T19:36:49.922Z,65.00
2022-10-16T19:41:49.719Z,64.97
2022-10-16T19:44:21.432Z,64.89
2022-10-16T19:46:50.290Z,64.88
2022-10-16T19:49:21.974Z,64.69
2022-10-16T19:51:55.060Z,64.89
2022-10-16T19:54:23.119Z,64.66
2022-10-16T19:56:51.523Z,64.71
2022-10-16T19:59:22.688Z,65.30
2022-10-16T20:01:51.278Z,65.11
2022-10-16T20:04:19.389Z,65.12
2022-10-16T20:06:47.859Z,65.37
2022-10-16T20:09:17.334Z,65.38
2022-10-16T20:11:45.284Z,65.42
2022-10-16T20:14:13.188Z,65.36
2022-10-16T20:16:41.209Z,65.47
2022-10-16T20:19:09.631Z,65.76
2022-10-16T20:21:39.015Z,65.34
2022-10-16T20:24:08.820Z,65.38
2022-10-16T20:26:39.231Z,65.24
2022-10-16T20:29:08.146Z,65.18
2022-10-16T20:31:36.790Z,65.39
2022-10-16T20:34:07.145Z,65.37
2022-10-16T20:36:36.052Z,65.60
2022-10-16T20:39:06.842Z,65.25
2022-10-16T20:41:35.444Z,65.20
2022-10-16T20:44:05.739Z,65.25
2022-10-16T20:46:34.019Z,65.10
2022-10-16T20:49:10.813Z,64.95
2022-10-16T20:51:45.704Z,64.91
2022-10-16T20:54:14.537Z,64.86
2022-10-16T20:56:44.062Z,64.92
2022-10-16T20:59:15.920Z,64.65
2022-10-16T21:01:44.033Z,64.62
2022-10-16T21:04:14.647Z,64.45
2022-10-16T21:06:42.734Z,64.58
2022-10-16T21:09:11.246Z,65.15
2022-10-16T21:11:41.917Z,65.02
2022-10-16T21:14:11.198Z,65.67
2022-10-16T21:16:40.527Z,65.67
2022-10-16T21:19:09.175Z,65.88
2022-10-16T21:21:39.204Z,66.15
2022-10-16T21:24:12.210Z,65.98
2022-10-16T21:26:43.274Z,66.26
2022-10-16T21:29:12.550Z,66.31
2022-10-16T21:31:42.755Z,66.46
2022-10-16T21:34:11.323Z,66.42
2022-10-16T21:36:41.840Z,66.61
2022-10-16T21:39:12.649Z,66.81
2022-10-16T21:41:41.650Z,66.96
2022-10-16T21:44:11.741Z,67.02
2022-10-16T21:46:42.772Z,66.91
2022-10-16T21:49:14.278Z,67.04
2022-10-16T21:51:44.807Z,67.19
2022-10-16T21:54:15.692Z,67.13
2022-10-16T21:56:44.293Z,67.18
2022-10-16T21:59:14.115Z,67.46
2022-10-16T22:01:44.697Z,67.45
2022-10-16T22:04:16.782Z,67.40
2022-10-16T22:06:45.037Z,67.27
2022-10-16T22:09:14.510Z,67.45
2022-10-16T22:11:47.700Z,67.48
2022-10-16T22:14:18.713Z,67.55
2022-10-16T22:16:49.387Z,67.70
2022-10-16T22:19:20.794Z,67.67
2022-10-16T22:21:53.283Z,67.75
2022-10-16T22:24:21.457Z,67.54
2022-10-16T22:26:50.130Z,68.04
2022-10-16T22:29:18.396Z,67.77
2022-10-16T22:31:52.794Z,68.10
2022-10-16T22:34:21.481Z,67.79
2022-10-16T22:36:51.559Z,67.92
2022-10-16T22:39:19.855Z,68.12
2022-10-16T22:41:48.571Z,67.91
2022-10-16T22:44:16.717Z,68.14
2022-10-16T22:46:45.302Z,68.11
2022-10-16T22:49:17.500Z,68.20
2022-10-16T22:51:46.879Z,68.35
2022-10-16T22:54:15.008Z,68.56
2022-10-16T22:56:44.021Z,68.13
2022-10-16T22:59:12.495Z,68.42
2022-10-16T23:01:43.077Z,68.57
2022-10-16T23:04:11.182Z,68.72
2022-10-16T23:06:41.412Z,68.33
2022-10-16T23:09:09.599Z,68.50
2022-10-16T23:11:38.112Z,68.49
2022-10-16T23:14:06.363Z,68.84
2022-10-16T23:16:34.757Z,68.68
2022-10-16T23:19:03.071Z,68.93
2022-10-16T23:21:31.712Z,68.48
2022-10-16T23:24:01.151Z,68.84
2022-10-16T23:26:29.793Z,69.02
2022-10-16T23:28:59.423Z,68.84
2022-10-16T23:31:29.993Z,68.87
2022-10-16T23:33:58.952Z,68.91
2022-10-16T23:36:27.860Z,68.93
2022-10-16T23:38:56.908Z,69.00
2022-10-16T23:41:26.444Z,68.86
2022-10-16T23:43:55.291Z,69.20
2022-10-16T23:46:26.321Z,69.12
2022-10-16T23:48:54.730Z,69.07
2022-10-16T23:51:23.183Z,69.40
2022-10-16T23:53:53.160Z,69.30
2022-10-16T23:56:21.520Z,69.06
2022-10-16T23:58:51.645Z,69.28
